Time;durP1;ratioP1;P1;durP2;ratioP2;P2;SDS_P1;SDS_P2;PMS_P1;PMS_P2;Temp;Humidity;BMP_temperature;BMP_pressure;BME280_temperature;BME280_humidity;BME280_pressure;Samples;Min_cycle;Max_cycle;Signal;HPM_P1;HPM_P2
2023/01/18 00:01:01;;;;;;;;;;;4.20;99.90;;;;;;4883190;29;19937;-63
2023/01/18 00:03:27;;;;;;;;;;;4.30;99.90;;;;;;4889524;29;20396;-63
2023/01/18 00:05:53;;;;;;;;;;;4.30;99.90;;;;;;4900799;29;19918;-63
2023/01/18 00:08:18;;;;;;;;;;;4.40;99.90;;;;;;4895763;29;20847;-63
2023/01/18 00:10:44;;;;;;;;;;;4.30;99.90;;;;;;4889675;29;21649;-63
2023/01/18 00:13:10;;;;;;;;;;;4.40;99.90;;;;;;4899409;29;19922;-63
2023/01/18 00:15:36;;;;;;;;;;;4.40;99.90;;;;;;4889191;29;20636;-64
2023/01/18 00:18:01;;;;;;;;;;;4.30;99.90;;;;;;4897097;29;19919;-63
2023/01/18 00:20:28;;;;;;;;;;;4.30;99.90;;;;;;4894617;29;19919;-64
2023/01/18 00:22:53;;;;;;;;;;;4.30;99.90;;;;;;4893907;29;20147;-64
2023/01/18 00:25:20;;;;;;;;;;;4.30;99.90;;;;;;4884906;29;20265;-63
2023/01/18 00:27:49;;;;;;;;;;;4.30;99.90;;;;;;4897044;29;19994;-63
2023/01/18 00:30:16;;;;;;;;;;;4.30;99.90;;;;;;4891201;29;19978;-63
2023/01/18 00:32:51;;;;;;;;;;;4.30;99.90;;;;;;4893736;29;19940;-64
2023/01/18 00:35:20;;;;;;;;;;;4.30;99.90;;;;;;4889863;29;20005;-66
2023/01/18 00:37:50;;;;;;;;;;;4.40;99.90;;;;;;4891806;29;19961;-66
2023/01/18 00:40:16;;;;;;;;;;;4.40;99.90;;;;;;4892160;29;20005;-67
2023/01/18 00:45:26;;;;;;;;;;;4.40;99.90;;;;;;4895026;29;19961;-67
2023/01/18 00:47:52;;;;;;;;;;;4.30;99.90;;;;;;4895699;29;21880;-67
2023/01/18 00:50:19;;;;;;;;;;;4.30;99.90;;;;;;4900099;29;20406;-67
2023/01/18 00:52:45;;;;;;;;;;;4.20;99.90;;;;;;4901085;29;19962;-67
2023/01/18 00:55:12;;;;;;;;;;;4.20;99.90;;;;;;4897601;29;19926;-64
2023/01/18 00:57:37;;;;;;;;;;;4.30;99.90;;;;;;4897198;29;19934;-64
2023/01/18 01:00:03;;;;;;;;;;;4.30;99.90;;;;;;4895213;29;20293;-63
2023/01/18 01:02:29;;;;;;;;;;;4.50;99.90;;;;;;4897077;29;20537;-62
2023/01/18 01:07:39;;;;;;;;;;;4.60;99.90;;;;;;4891702;29;19934;-64
2023/01/18 01:10:08;;;;;;;;;;;4.60;99.90;;;;;;4895065;29;19923;-63
2023/01/18 01:26:15;;;;;;;;;;;4.60;99.90;;;;;;4898523;29;19941;-66
2023/01/18 01:28:44;;;;;;;;;;;4.60;99.90;;;;;;4894180;29;20727;-66
2023/01/18 01:31:11;;;;;;;;;;;4.60;99.90;;;;;;4894940;29;19965;-66
2023/01/18 01:33:37;;;;;;;;;;;4.70;99.90;;;;;;4898640;29;19922;-66
2023/01/18 01:36:04;;;;;;;;;;;4.70;99.90;;;;;;4895462;29;19915;-66
2023/01/18 01:38:30;;;;;;;;;;;4.70;99.90;;;;;;4892103;29;20303;-65
2023/01/18 01:41:00;;;;;;;;;;;4.80;99.90;;;;;;4893692;29;19919;-65
2023/01/18 01:43:44;;;;;;;;;;;4.80;99.90;;;;;;4897042;29;20011;-65
2023/01/18 01:46:15;;;;;;;;;;;4.80;99.90;;;;;;4894298;29;19923;-66
2023/01/18 01:48:41;;;;;;;;;;;4.80;99.90;;;;;;4896701;29;19925;-65
2023/01/18 01:51:07;;;;;;;;;;;4.70;99.90;;;;;;4897057;29;19923;-63
2023/01/18 01:53:32;;;;;;;;;;;4.60;99.90;;;;;;4893206;29;19911;-63
2023/01/18 01:55:58;;;;;;;;;;;4.50;99.90;;;;;;4885542;29;19999;-63
2023/01/18 01:58:25;;;;;;;;;;;4.50;99.90;;;;;;4903060;29;20395;-63
2023/01/18 02:00:53;;;;;;;;;;;4.50;99.90;;;;;;4893151;29;19926;-63
2023/01/18 02:03:19;;;;;;;;;;;4.50;99.90;;;;;;4913118;29;19914;-63
2023/01/18 02:05:51;;;;;;;;;;;4.50;99.90;;;;;;4902309;29;19919;-63
2023/01/18 02:08:21;;;;;;;;;;;4.50;99.90;;;;;;4888559;29;19915;-64
2023/01/18 02:10:50;;;;;;;;;;;4.60;99.90;;;;;;4892141;29;20384;-63
2023/01/18 02:13:15;;;;;;;;;;;4.60;99.90;;;;;;4909361;29;19967;-63
2023/01/18 02:16:10;;;;;;;;;;;4.70;99.90;;;;;;4891784;29;19915;-64
2023/01/18 02:18:47;;;;;;;;;;;4.60;99.90;;;;;;4888881;29;19923;-63
2023/01/18 02:21:21;;;;;;;;;;;4.60;99.90;;;;;;4890680;29;20009;-63
2023/01/18 02:23:59;;;;;;;;;;;4.60;99.90;;;;;;4899716;29;21113;-62
2023/01/18 02:26:45;;;;;;;;;;;4.60;99.90;;;;;;4892615;29;19926;-63
2023/01/18 02:29:16;;;;;;;;;;;4.60;99.90;;;;;;4897840;29;19919;-64
2023/01/18 02:32:00;;;;;;;;;;;4.60;99.90;;;;;;4889906;29;21929;-65
2023/01/18 02:34:39;;;;;;;;;;;4.60;99.90;;;;;;4893274;29;20001;-65
2023/01/18 02:37:05;;;;;;;;;;;4.60;99.90;;;;;;4888673;29;19918;-64
2023/01/18 02:39:57;;;;;;;;;;;4.50;99.90;;;;;;4888756;29;20365;-65
2023/01/18 02:48:02;;;;;;;;;;;4.50;99.90;;;;;;4886094;29;19918;-62
2023/01/18 02:50:27;;;;;;;;;;;4.50;99.90;;;;;;4882115;29;21091;-64
2023/01/18 02:52:53;;;;;;;;;;;4.50;99.90;;;;;;4885972;29;19919;-65
2023/01/18 02:55:22;;;;;;;;;;;4.60;99.90;;;;;;4886434;29;19923;-66
2023/01/18 02:57:47;;;;;;;;;;;4.60;99.90;;;;;;4885743;29;19920;-66
2023/01/18 03:00:17;;;;;;;;;;;4.50;99.90;;;;;;4882555;29;19919;-65
2023/01/18 03:02:45;;;;;;;;;;;4.50;99.90;;;;;;4893244;29;19919;-65
2023/01/18 03:05:11;;;;;;;;;;;4.60;99.90;;;;;;4892084;29;19919;-65
2023/01/18 03:07:43;;;;;;;;;;;4.60;99.90;;;;;;4890177;29;19918;-66
2023/01/18 03:10:10;;;;;;;;;;;4.60;99.90;;;;;;4892604;29;19962;-64
2023/01/18 03:12:58;;;;;;;;;;;4.70;99.90;;;;;;4891510;29;19906;-66
2023/01/18 03:15:24;;;;;;;;;;;4.70;99.90;;;;;;4893362;29;21598;-66
2023/01/18 03:17:51;;;;;;;;;;;4.70;99.90;;;;;;4889638;29;19963;-66
2023/01/18 03:20:24;;;;;;;;;;;4.70;99.90;;;;;;4896966;29;20205;-66
2023/01/18 03:25:37;;;;;;;;;;;4.80;99.90;;;;;;4898438;29;20374;-65
2023/01/18 03:33:59;;;;;;;;;;;4.80;99.90;;;;;;4891803;29;19926;-66
2023/01/18 03:36:26;;;;;;;;;;;4.80;99.90;;;;;;4893265;29;19915;-66
2023/01/18 03:38:54;;;;;;;;;;;4.70;99.90;;;;;;4891723;29;20059;-66
2023/01/18 03:41:21;;;;;;;;;;;4.60;99.90;;;;;;4896281;29;19921;-66
2023/01/18 03:43:47;;;;;;;;;;;4.50;99.90;;;;;;4888876;29;20303;-66
2023/01/18 03:46:14;;;;;;;;;;;4.50;99.90;;;;;;4891450;29;20554;-65
2023/01/18 03:48:39;;;;;;;;;;;4.50;99.90;;;;;;4895040;29;19942;-65
2023/01/18 03:51:13;;;;;;;;;;;4.40;99.90;;;;;;4886444;29;20116;-65
2023/01/18 03:53:44;;;;;;;;;;;4.40;99.90;;;;;;4883877;29;20479;-65
2023/01/18 03:56:15;;;;;;;;;;;4.50;99.90;;;;;;4883390;29;19928;-65
2023/01/18 03:58:41;;;;;;;;;;;4.40;99.90;;;;;;4888050;29;19926;-65
2023/01/18 04:01:06;;;;;;;;;;;4.50;99.90;;;;;;4887203;29;19923;-64
2023/01/18 04:03:32;;;;;;;;;;;4.50;99.90;;;;;;4888498;29;20288;-66
2023/01/18 04:05:59;;;;;;;;;;;4.60;99.90;;;;;;4885583;29;19954;-66
2023/01/18 04:08:24;;;;;;;;;;;4.60;99.90;;;;;;4886674;29;20360;-66
2023/01/18 04:10:50;;;;;;;;;;;4.40;99.90;;;;;;4883943;29;19954;-66
2023/01/18 04:13:15;;;;;;;;;;;4.30;99.90;;;;;;4884498;29;19915;-66
2023/01/18 04:15:41;;;;;;;;;;;4.30;99.90;;;;;;4884452;29;20584;-66
2023/01/18 04:18:06;;;;;;;;;;;4.40;99.90;;;;;;4889677;29;20371;-66
2023/01/18 04:20:32;;;;;;;;;;;4.50;99.90;;;;;;4892613;29;19922;-66
2023/01/18 04:22:57;;;;;;;;;;;4.50;99.90;;;;;;4886465;29;19934;-66
2023/01/18 04:25:23;;;;;;;;;;;4.60;99.90;;;;;;4890505;29;19922;-66
2023/01/18 04:27:49;;;;;;;;;;;4.70;99.90;;;;;;4891323;29;19919;-66
2023/01/18 04:30:14;;;;;;;;;;;4.70;99.90;;;;;;4889278;29;20365;-65
2023/01/18 04:32:41;;;;;;;;;;;4.80;99.90;;;;;;4895901;29;20249;-65
2023/01/18 04:35:07;;;;;;;;;;;4.80;99.90;;;;;;4897706;29;19911;-65
2023/01/18 04:37:33;;;;;;;;;;;4.80;99.90;;;;;;4902032;29;19911;-65
2023/01/18 04:39:59;;;;;;;;;;;4.70;99.90;;;;;;4895884;29;19922;-65
2023/01/18 04:42:25;;;;;;;;;;;4.60;99.90;;;;;;4901541;29;20022;-65
2023/01/18 04:44:51;;;;;;;;;;;4.40;99.90;;;;;;4895734;29;19919;-65
2023/01/18 04:47:17;;;;;;;;;;;4.30;99.90;;;;;;4894861;29;20265;-64
2023/01/18 04:49:43;;;;;;;;;;;4.30;99.90;;;;;;4892588;29;19924;-65
2023/01/18 04:52:08;;;;;;;;;;;4.30;99.90;;;;;;4899690;29;19918;-65
2023/01/18 04:54:34;;;;;;;;;;;4.40;99.90;;;;;;4902105;29;19942;-64
2023/01/18 04:56:59;;;;;;;;;;;4.40;99.90;;;;;;4901611;29;21101;-65
2023/01/18 04:59:25;;;;;;;;;;;4.40;99.90;;;;;;4901673;29;19911;-64
2023/01/18 05:01:50;;;;;;;;;;;4.40;99.90;;;;;;4892425;29;19919;-65
2023/01/18 05:04:16;;;;;;;;;;;4.40;99.90;;;;;;4891905;29;20513;-64
2023/01/18 05:06:42;;;;;;;;;;;4.40;99.90;;;;;;4895791;29;20393;-64
2023/01/18 05:09:10;;;;;;;;;;;4.40;99.90;;;;;;4893295;29;20016;-64
2023/01/18 05:11:35;;;;;;;;;;;4.40;99.90;;;;;;4887820;29;20404;-64
2023/01/18 05:14:01;;;;;;;;;;;4.40;99.90;;;;;;4887662;29;19919;-64
2023/01/18 05:16:26;;;;;;;;;;;4.30;99.90;;;;;;4882968;29;19915;-64
2023/01/18 05:18:52;;;;;;;;;;;4.30;99.90;;;;;;4889060;29;19937;-65
2023/01/18 05:21:18;;;;;;;;;;;4.30;99.90;;;;;;4889577;29;20444;-64
2023/01/18 05:23:43;;;;;;;;;;;4.30;99.90;;;;;;4887794;29;21312;-64
2023/01/18 05:26:19;;;;;;;;;;;4.20;99.90;;;;;;4880184;29;19919;-64
2023/01/18 05:28:45;;;;;;;;;;;4.10;99.90;;;;;;4883694;29;19918;-64
2023/01/18 05:31:11;;;;;;;;;;;4.10;99.90;;;;;;4902379;29;20307;-64
2023/01/18 05:33:36;;;;;;;;;;;4.00;99.90;;;;;;4895076;29;19915;-64
2023/01/18 05:36:02;;;;;;;;;;;4.10;99.90;;;;;;4900392;29;19919;-64
2023/01/18 05:38:28;;;;;;;;;;;4.10;99.90;;;;;;4892523;29;19916;-65
2023/01/18 05:40:53;;;;;;;;;;;4.10;99.90;;;;;;4891032;29;20017;-64
2023/01/18 05:43:20;;;;;;;;;;;4.10;99.90;;;;;;4900869;29;19911;-65
2023/01/18 05:45:46;;;;;;;;;;;4.00;99.90;;;;;;4886055;29;19919;-64
2023/01/18 05:48:12;;;;;;;;;;;4.00;99.90;;;;;;4885834;29;19922;-64
2023/01/18 05:50:39;;;;;;;;;;;4.20;99.90;;;;;;4893314;29;19963;-64
2023/01/18 05:53:05;;;;;;;;;;;4.30;99.90;;;;;;4874946;29;20412;-64
2023/01/18 05:55:31;;;;;;;;;;;4.40;99.90;;;;;;4892846;29;19971;-64
2023/01/18 05:57:57;;;;;;;;;;;4.50;99.90;;;;;;4896707;29;20001;-64
2023/01/18 06:00:23;;;;;;;;;;;4.60;99.90;;;;;;4899718;29;19946;-64
2023/01/18 06:02:48;;;;;;;;;;;4.70;99.90;;;;;;4893233;29;20007;-65
2023/01/18 06:05:14;;;;;;;;;;;4.70;99.90;;;;;;4893879;29;20294;-65
2023/01/18 06:07:41;;;;;;;;;;;4.80;99.90;;;;;;4885527;29;19915;-64
2023/01/18 06:10:07;;;;;;;;;;;4.80;99.90;;;;;;4884641;29;19965;-64
2023/01/18 06:12:33;;;;;;;;;;;4.80;99.90;;;;;;4889383;29;19918;-64
2023/01/18 06:14:59;;;;;;;;;;;4.70;99.90;;;;;;4889758;29;19915;-64
2023/01/18 06:17:25;;;;;;;;;;;4.70;99.90;;;;;;4889586;29;20009;-64
2023/01/18 06:19:50;;;;;;;;;;;4.70;99.90;;;;;;4885526;29;19919;-66
2023/01/18 06:22:16;;;;;;;;;;;4.60;99.90;;;;;;4884507;29;20399;-66
2023/01/18 06:24:41;;;;;;;;;;;4.60;99.90;;;;;;4886920;29;19919;-66
2023/01/18 06:27:07;;;;;;;;;;;4.60;99.90;;;;;;4887628;29;19925;-66
2023/01/18 06:29:32;;;;;;;;;;;4.60;99.90;;;;;;4889670;29;19923;-65
2023/01/18 06:31:58;;;;;;;;;;;4.60;99.90;;;;;;4890826;29;20274;-69
2023/01/18 06:34:23;;;;;;;;;;;4.60;99.90;;;;;;4883912;29;19915;-67
2023/01/18 06:36:49;;;;;;;;;;;4.40;99.90;;;;;;4892689;29;19983;-63
2023/01/18 06:39:14;;;;;;;;;;;4.30;99.90;;;;;;4887609;29;19916;-63
2023/01/18 06:41:40;;;;;;;;;;;4.30;99.90;;;;;;4888230;29;19915;-63
2023/01/18 06:44:05;;;;;;;;;;;4.10;99.90;;;;;;4889436;29;20018;-63
2023/01/18 06:46:31;;;;;;;;;;;4.10;99.90;;;;;;4896848;29;19975;-63
2023/01/18 06:48:56;;;;;;;;;;;3.90;99.90;;;;;;4897015;29;19919;-63
2023/01/18 06:51:22;;;;;;;;;;;3.90;99.90;;;;;;4899023;29;19966;-62
2023/01/18 06:53:48;;;;;;;;;;;3.90;99.90;;;;;;4894185;29;20384;-62
2023/01/18 06:56:14;;;;;;;;;;;4.00;99.90;;;;;;4900460;29;20300;-67
2023/01/18 06:58:40;;;;;;;;;;;4.00;99.90;;;;;;4897960;29;19922;-68
2023/01/18 07:01:05;;;;;;;;;;;3.90;99.90;;;;;;4893265;29;19919;-67
2023/01/18 07:03:31;;;;;;;;;;;4.00;99.90;;;;;;4901918;29;20421;-67
2023/01/18 07:05:58;;;;;;;;;;;4.10;99.90;;;;;;4897819;29;20309;-67
2023/01/18 07:08:25;;;;;;;;;;;4.30;99.90;;;;;;4894559;29;20018;-67
2023/01/18 07:10:51;;;;;;;;;;;4.40;99.90;;;;;;4895033;29;19923;-67
2023/01/18 07:13:17;;;;;;;;;;;4.40;99.90;;;;;;4897979;29;19921;-68
2023/01/18 07:15:43;;;;;;;;;;;4.40;99.90;;;;;;4895439;29;22295;-63
2023/01/18 07:18:08;;;;;;;;;;;4.30;99.90;;;;;;4894490;29;19942;-62
2023/01/18 07:20:34;;;;;;;;;;;4.30;99.90;;;;;;4901791;29;20156;-62
2023/01/18 07:22:59;;;;;;;;;;;4.30;99.90;;;;;;4894036;29;19915;-63
2023/01/18 07:25:26;;;;;;;;;;;4.20;99.90;;;;;;4900751;29;20419;-62
2023/01/18 07:27:52;;;;;;;;;;;4.10;99.90;;;;;;4894960;29;19919;-63
2023/01/18 07:30:17;;;;;;;;;;;4.00;99.90;;;;;;4894204;29;20490;-62
2023/01/18 07:32:48;;;;;;;;;;;4.00;99.90;;;;;;4892627;29;19957;-67
2023/01/18 07:35:14;;;;;;;;;;;4.00;99.90;;;;;;4894543;29;19916;-63
2023/01/18 07:37:40;;;;;;;;;;;3.90;99.90;;;;;;4893923;29;20377;-63
2023/01/18 07:40:07;;;;;;;;;;;3.90;99.90;;;;;;4891108;29;19919;-62
2023/01/18 07:42:33;;;;;;;;;;;3.80;99.90;;;;;;4911117;29;19911;-63
2023/01/18 07:44:58;;;;;;;;;;;3.90;99.90;;;;;;4899144;29;19922;-63
2023/01/18 07:47:24;;;;;;;;;;;4.00;99.90;;;;;;4894548;29;19919;-63
2023/01/18 07:49:49;;;;;;;;;;;3.90;99.90;;;;;;4895265;29;19915;-62
2023/01/18 07:52:15;;;;;;;;;;;4.00;99.90;;;;;;4899534;29;20009;-63
2023/01/18 07:54:40;;;;;;;;;;;4.00;99.90;;;;;;4895500;29;19998;-63
2023/01/18 07:57:06;;;;;;;;;;;4.00;99.90;;;;;;4901723;29;20584;-62
2023/01/18 07:59:32;;;;;;;;;;;3.90;99.90;;;;;;4900331;29;19911;-63
2023/01/18 08:01:57;;;;;;;;;;;3.90;99.90;;;;;;4899111;29;20533;-63
2023/01/18 08:04:24;;;;;;;;;;;3.80;99.90;;;;;;4904092;29;19917;-63
2023/01/18 08:06:50;;;;;;;;;;;3.70;99.90;;;;;;4897180;29;19915;-63
2023/01/18 08:09:16;;;;;;;;;;;3.70;99.90;;;;;;4900510;29;19937;-63
2023/01/18 08:11:41;;;;;;;;;;;3.80;99.90;;;;;;4904432;29;19958;-63
2023/01/18 08:14:07;;;;;;;;;;;3.80;99.90;;;;;;4900041;29;20269;-63
2023/01/18 08:16:32;;;;;;;;;;;3.80;99.90;;;;;;4901195;29;19950;-63
2023/01/18 08:18:58;;;;;;;;;;;3.90;99.90;;;;;;4897040;29;19922;-63
2023/01/18 08:21:24;;;;;;;;;;;3.90;99.90;;;;;;4897274;29;20276;-63
2023/01/18 08:23:51;;;;;;;;;;;4.00;99.90;;;;;;4899608;29;19911;-62
2023/01/18 08:26:17;;;;;;;;;;;3.90;99.90;;;;;;4887802;29;19954;-62
2023/01/18 08:28:43;;;;;;;;;;;3.80;99.90;;;;;;4887738;29;20009;-62
2023/01/18 08:31:16;;;;;;;;;;;3.80;99.90;;;;;;4886452;29;20421;-61
2023/01/18 08:33:44;;;;;;;;;;;3.80;99.90;;;;;;4886964;29;19922;-62
2023/01/18 08:36:10;;;;;;;;;;;3.80;99.90;;;;;;4891389;29;20001;-62
2023/01/18 08:38:36;;;;;;;;;;;3.80;99.90;;;;;;4887402;29;19953;-62
2023/01/18 08:41:02;;;;;;;;;;;3.80;99.90;;;;;;4889478;29;20018;-62
2023/01/18 08:43:28;;;;;;;;;;;3.80;99.90;;;;;;4885912;29;20448;-62
2023/01/18 08:45:53;;;;;;;;;;;3.90;99.90;;;;;;4885858;29;19926;-61
2023/01/18 08:48:19;;;;;;;;;;;3.90;99.90;;;;;;4897439;29;19908;-62
2023/01/18 08:50:45;;;;;;;;;;;3.90;99.90;;;;;;4895277;29;19927;-66
2023/01/18 08:53:12;;;;;;;;;;;3.90;99.90;;;;;;4890616;29;19978;-66
2023/01/18 08:55:37;;;;;;;;;;;3.90;99.90;;;;;;4889327;29;20359;-66
2023/01/18 08:58:03;;;;;;;;;;;4.00;99.90;;;;;;4894423;29;19914;-66
2023/01/18 09:00:31;;;;;;;;;;;4.00;99.90;;;;;;4901234;29;19915;-66
2023/01/18 09:02:57;;;;;;;;;;;4.00;99.90;;;;;;4892715;29;19926;-66
2023/01/18 09:05:23;;;;;;;;;;;4.00;99.90;;;;;;4902884;29;19955;-66
2023/01/18 09:07:49;;;;;;;;;;;4.00;99.90;;;;;;4902276;29;19916;-66
2023/01/18 09:10:15;;;;;;;;;;;4.00;99.90;;;;;;4895499;29;19918;-66
2023/01/18 09:12:40;;;;;;;;;;;4.10;99.90;;;;;;4891537;29;19951;-65
2023/01/18 09:15:06;;;;;;;;;;;4.10;99.90;;;;;;4887848;29;19962;-66
2023/01/18 09:17:32;;;;;;;;;;;4.10;99.90;;;;;;4893330;29;19912;-67
2023/01/18 09:19:58;;;;;;;;;;;4.20;99.90;;;;;;4898561;29;19964;-66
2023/01/18 09:22:24;;;;;;;;;;;4.30;99.90;;;;;;4901828;29;19922;-66
2023/01/18 09:24:50;;;;;;;;;;;4.30;99.90;;;;;;4898152;29;19915;-66
2023/01/18 09:27:15;;;;;;;;;;;4.40;99.90;;;;;;4894841;29;19921;-66
2023/01/18 09:29:41;;;;;;;;;;;4.30;99.90;;;;;;4900206;29;20205;-66
2023/01/18 09:32:09;;;;;;;;;;;4.30;99.90;;;;;;4899638;29;19943;-66
2023/01/18 09:34:35;;;;;;;;;;;4.30;99.90;;;;;;4899320;29;19979;-66
2023/01/18 09:37:00;;;;;;;;;;;4.30;99.90;;;;;;4891570;29;19919;-66
2023/01/18 09:39:26;;;;;;;;;;;4.20;99.90;;;;;;4901224;29;19915;-66
2023/01/18 09:41:59;;;;;;;;;;;4.20;99.90;;;;;;4898154;29;19914;-68
2023/01/18 09:44:28;;;;;;;;;;;4.20;99.90;;;;;;4899725;29;19998;-66
2023/01/18 09:46:55;;;;;;;;;;;4.20;99.90;;;;;;4895265;29;20665;-66
2023/01/18 09:49:25;;;;;;;;;;;4.20;99.90;;;;;;4896139;29;19975;-66
2023/01/18 09:52:00;;;;;;;;;;;4.10;99.90;;;;;;4901485;29;19915;-66
2023/01/18 09:54:32;;;;;;;;;;;4.20;99.90;;;;;;4898629;29;19914;-67
2023/01/18 09:57:00;;;;;;;;;;;4.20;99.90;;;;;;4895374;29;19929;-66
2023/01/18 09:59:35;;;;;;;;;;;4.30;99.90;;;;;;4897827;29;19911;-66
2023/01/18 10:02:02;;;;;;;;;;;4.20;99.90;;;;;;4888596;29;20010;-69
2023/01/18 10:04:31;;;;;;;;;;;4.20;99.90;;;;;;4864330;29;20259;-66
2023/01/18 10:06:57;;;;;;;;;;;4.20;99.90;;;;;;4881389;29;19925;-66
2023/01/18 10:09:25;;;;;;;;;;;4.20;99.90;;;;;;4880676;29;19919;-66
2023/01/18 10:12:00;;;;;;;;;;;4.20;99.90;;;;;;4881012;29;19921;-66
2023/01/18 10:14:45;;;;;;;;;;;4.20;99.90;;;;;;4883073;29;19919;-66
2023/01/18 10:17:16;;;;;;;;;;;4.20;99.90;;;;;;4889530;29;19915;-66
2023/01/18 10:19:42;;;;;;;;;;;4.20;99.90;;;;;;4883864;29;20013;-66
2023/01/18 10:22:20;;;;;;;;;;;4.20;99.90;;;;;;4887076;29;19915;-66
2023/01/18 10:24:48;;;;;;;;;;;4.30;99.90;;;;;;4887562;29;19998;-66
2023/01/18 10:27:19;;;;;;;;;;;4.30;99.90;;;;;;4883565;29;20070;-62
2023/01/18 10:29:47;;;;;;;;;;;4.30;99.90;;;;;;4896143;29;19926;-62
2023/01/18 10:32:18;;;;;;;;;;;4.40;99.90;;;;;;4893589;29;23976;-62
2023/01/18 10:34:46;;;;;;;;;;;4.40;99.90;;;;;;4896756;29;19917;-62
2023/01/18 10:37:21;;;;;;;;;;;4.50;99.90;;;;;;4895014;29;19915;-62
2023/01/18 10:39:47;;;;;;;;;;;4.50;99.90;;;;;;4895831;29;19975;-62
2023/01/18 10:42:36;;;;;;;;;;;4.50;99.90;;;;;;4891850;29;20411;-62
2023/01/18 10:45:01;;;;;;;;;;;4.50;99.90;;;;;;4891443;29;19919;-62
2023/01/18 10:47:27;;;;;;;;;;;4.60;99.90;;;;;;4897444;29;21612;-62
2023/01/18 10:49:56;;;;;;;;;;;4.60;99.90;;;;;;4896049;29;20018;-63
2023/01/18 10:52:22;;;;;;;;;;;4.60;99.90;;;;;;4896741;29;19978;-63
2023/01/18 10:54:49;;;;;;;;;;;4.60;99.90;;;;;;4897059;29;19915;-62
2023/01/18 10:57:19;;;;;;;;;;;4.60;99.90;;;;;;4898562;29;19911;-63
2023/01/18 10:59:44;;;;;;;;;;;4.60;99.90;;;;;;4897591;29;19958;-63
2023/01/18 11:02:20;;;;;;;;;;;4.70;99.90;;;;;;4897816;29;19972;-63
2023/01/18 11:04:50;;;;;;;;;;;4.70;99.90;;;;;;4899898;29;19961;-63
2023/01/18 11:07:22;;;;;;;;;;;4.70;99.90;;;;;;4899856;29;19915;-63
2023/01/18 11:09:50;;;;;;;;;;;4.80;99.90;;;;;;4900469;29;20431;-63
2023/01/18 11:12:33;;;;;;;;;;;4.80;99.90;;;;;;4903834;29;19926;-63
2023/01/18 11:15:13;;;;;;;;;;;4.80;99.90;;;;;;4896944;29;19911;-63
2023/01/18 11:17:39;;;;;;;;;;;4.80;99.90;;;;;;4895745;29;19998;-63
2023/01/18 11:20:05;;;;;;;;;;;4.80;99.90;;;;;;4903574;29;20893;-62
2023/01/18 11:22:32;;;;;;;;;;;4.80;99.90;;;;;;4900161;29;19994;-64
2023/01/18 11:24:57;;;;;;;;;;;4.90;99.90;;;;;;4891711;29;21564;-63
2023/01/18 11:27:24;;;;;;;;;;;4.90;99.90;;;;;;4902273;29;20360;-63
2023/01/18 11:29:49;;;;;;;;;;;4.90;99.90;;;;;;4900755;29;19926;-63
2023/01/18 11:32:25;;;;;;;;;;;5.00;99.90;;;;;;4896315;29;19930;-63
2023/01/18 11:34:52;;;;;;;;;;;5.00;99.90;;;;;;4896635;29;19911;-63
2023/01/18 11:37:27;;;;;;;;;;;5.10;99.90;;;;;;4899117;29;20002;-63
2023/01/18 11:39:52;;;;;;;;;;;5.10;99.90;;;;;;4894611;29;19915;-64
2023/01/18 11:42:24;;;;;;;;;;;5.10;99.90;;;;;;4903468;29;19911;-63
2023/01/18 11:44:59;;;;;;;;;;;5.20;99.90;;;;;;4899488;29;20259;-64
2023/01/18 11:47:50;;;;;;;;;;;5.30;99.90;;;;;;4900726;29;19911;-62
2023/01/18 11:50:15;;;;;;;;;;;5.30;99.90;;;;;;4899669;29;20026;-65
2023/01/18 11:52:41;;;;;;;;;;;5.40;99.90;;;;;;4896082;29;19918;-62
2023/01/18 11:55:36;;;;;;;;;;;5.40;99.90;;;;;;4897509;29;19923;-64
2023/01/18 11:58:04;;;;;;;;;;;5.40;99.90;;;;;;4889970;29;19919;-63
2023/01/18 12:00:38;;;;;;;;;;;5.50;99.90;;;;;;4898029;29;20372;-63
2023/01/18 12:03:27;;;;;;;;;;;5.50;99.90;;;;;;4894800;29;20367;-63
2023/01/18 12:06:16;;;;;;;;;;;5.50;99.90;;;;;;4899753;29;19969;-64
2023/01/18 12:09:10;;;;;;;;;;;5.60;99.90;;;;;;4899161;29;21087;-64
2023/01/18 12:11:45;;;;;;;;;;;5.70;99.90;;;;;;4890082;29;20473;-64
2023/01/18 12:14:14;;;;;;;;;;;5.70;99.90;;;;;;4899473;29;19921;-64
2023/01/18 12:17:19;;;;;;;;;;;5.70;99.90;;;;;;4898989;29;19919;-64
2023/01/18 12:20:03;;;;;;;;;;;5.80;99.90;;;;;;4875564;29;20004;-63
2023/01/18 12:22:44;;;;;;;;;;;5.80;99.90;;;;;;4882500;29;19922;-63
2023/01/18 12:25:20;;;;;;;;;;;5.90;99.90;;;;;;4889194;29;19990;-63
2023/01/18 12:27:52;;;;;;;;;;;6.00;99.90;;;;;;4890582;29;19967;-64
2023/01/18 12:30:30;;;;;;;;;;;6.10;99.90;;;;;;4889626;29;20330;-63
2023/01/18 12:33:05;;;;;;;;;;;6.20;99.90;;;;;;4891841;29;20047;-63
2023/01/18 12:35:49;;;;;;;;;;;6.20;99.90;;;;;;4896681;29;19978;-63
2023/01/18 12:38:31;;;;;;;;;;;6.30;99.90;;;;;;4898785;29;19915;-63
2023/01/18 12:41:07;;;;;;;;;;;6.40;99.90;;;;;;4903772;29;19915;-63
2023/01/18 12:43:52;;;;;;;;;;;6.50;99.90;;;;;;4900817;29;19911;-63
2023/01/18 12:46:25;;;;;;;;;;;6.50;99.90;;;;;;4898713;29;20701;-64
2023/01/18 12:49:01;;;;;;;;;;;6.50;99.90;;;;;;4895972;29;19943;-63
2023/01/18 12:51:29;;;;;;;;;;;6.50;99.90;;;;;;4902351;29;19923;-63
2023/01/18 12:54:10;;;;;;;;;;;6.50;99.90;;;;;;4896812;29;25139;-63
2023/01/18 12:56:37;;;;;;;;;;;6.50;99.90;;;;;;4894618;29;20497;-63
2023/01/18 12:59:09;;;;;;;;;;;6.50;99.90;;;;;;4890283;29;20363;-67
2023/01/18 13:01:39;;;;;;;;;;;6.60;99.90;;;;;;4890843;29;19965;-67
2023/01/18 13:04:09;;;;;;;;;;;6.60;99.90;;;;;;4885165;29;19915;-66
2023/01/18 13:06:37;;;;;;;;;;;6.60;99.90;;;;;;4876948;29;19973;-66
2023/01/18 13:09:10;;;;;;;;;;;6.60;99.90;;;;;;4892987;29;19925;-66
2023/01/18 13:11:40;;;;;;;;;;;6.70;99.90;;;;;;4900264;29;20468;-66
2023/01/18 13:14:17;;;;;;;;;;;6.80;99.90;;;;;;4897035;29;19915;-66
2023/01/18 13:17:03;;;;;;;;;;;6.90;99.90;;;;;;4895170;29;19914;-62
2023/01/18 13:19:41;;;;;;;;;;;7.10;99.90;;;;;;4898636;29;19957;-63
2023/01/18 13:22:07;;;;;;;;;;;7.10;99.90;;;;;;4898451;29;19914;-62
2023/01/18 13:24:47;;;;;;;;;;;7.20;99.90;;;;;;4898514;29;21963;-62
2023/01/18 13:27:14;;;;;;;;;;;7.20;99.90;;;;;;4895994;29;19915;-62
2023/01/18 13:29:40;;;;;;;;;;;7.10;99.90;;;;;;4898121;29;19931;-63
2023/01/18 13:32:26;;;;;;;;;;;7.10;99.90;;;;;;4899015;29;20005;-63
2023/01/18 13:34:56;;;;;;;;;;;7.10;99.90;;;;;;4894118;29;19967;-63
2023/01/18 13:37:51;;;;;;;;;;;7.20;99.90;;;;;;4892044;29;19974;-67
2023/01/18 13:40:25;;;;;;;;;;;7.30;99.90;;;;;;4899451;29;20369;-67
2023/01/18 13:42:51;;;;;;;;;;;7.30;99.90;;;;;;4888657;29;19919;-68
2023/01/18 13:45:18;;;;;;;;;;;7.30;99.90;;;;;;4888009;29;19911;-67
2023/01/18 13:47:58;;;;;;;;;;;7.30;99.90;;;;;;4907356;29;20399;-67
2023/01/18 13:50:27;;;;;;;;;;;7.40;99.90;;;;;;4899344;29;19915;-67
2023/01/18 13:53:08;;;;;;;;;;;7.50;99.90;;;;;;4897689;29;19930;-66
2023/01/18 13:55:34;;;;;;;;;;;7.60;99.90;;;;;;4895667;29;20006;-66
2023/01/18 13:58:00;;;;;;;;;;;7.60;99.90;;;;;;4896686;29;20572;-62
2023/01/18 14:00:26;;;;;;;;;;;7.60;99.90;;;;;;4898956;29;19922;-62
2023/01/18 14:02:55;;;;;;;;;;;7.60;99.90;;;;;;4899482;29;19918;-63
2023/01/18 14:05:26;;;;;;;;;;;7.60;99.90;;;;;;4897390;29;19915;-63
2023/01/18 14:07:53;;;;;;;;;;;7.60;99.90;;;;;;4896879;29;19914;-62
2023/01/18 14:10:25;;;;;;;;;;;7.60;99.90;;;;;;4893346;29;19946;-62
2023/01/18 14:12:52;;;;;;;;;;;7.60;99.90;;;;;;4894779;29;20432;-63
2023/01/18 14:15:29;;;;;;;;;;;7.70;99.90;;;;;;4897547;29;20228;-67
2023/01/18 14:17:56;;;;;;;;;;;7.80;99.90;;;;;;4892669;29;20366;-67
2023/01/18 14:20:40;;;;;;;;;;;7.80;99.90;;;;;;4890497;29;19919;-67
2023/01/18 14:23:26;;;;;;;;;;;7.90;99.90;;;;;;4899867;29;19922;-67
2023/01/18 14:26:00;;;;;;;;;;;7.90;99.90;;;;;;4896518;29;19916;-68
2023/01/18 14:28:29;;;;;;;;;;;7.90;99.90;;;;;;4928045;28;19923;-67
2023/01/18 14:30:57;;;;;;;;;;;7.90;99.90;;;;;;4898985;29;19934;-67
2023/01/18 14:33:25;;;;;;;;;;;7.90;99.90;;;;;;4894212;29;19915;-63
2023/01/18 14:35:51;;;;;;;;;;;7.80;99.90;;;;;;4894802;29;19918;-67
2023/01/18 14:38:18;;;;;;;;;;;7.80;99.90;;;;;;4883309;29;19915;-67
2023/01/18 14:40:45;;;;;;;;;;;7.80;99.90;;;;;;4889597;29;20384;-68
2023/01/18 14:43:31;;;;;;;;;;;7.80;99.90;;;;;;4887628;29;19915;-68
2023/01/18 14:46:01;;;;;;;;;;;7.80;99.90;;;;;;4892981;29;20132;-67
2023/01/18 14:48:29;;;;;;;;;;;7.80;99.90;;;;;;4901439;29;21781;-67
2023/01/18 14:50:55;;;;;;;;;;;7.80;99.90;;;;;;4891910;29;19949;-67
2023/01/18 14:53:23;;;;;;;;;;;7.80;99.90;;;;;;4897647;29;19911;-67
2023/01/18 14:56:02;;;;;;;;;;;7.80;99.90;;;;;;4904845;29;20436;-67
2023/01/18 14:58:30;;;;;;;;;;;7.80;99.90;;;;;;4883807;29;19929;-69
2023/01/18 15:00:56;;;;;;;;;;;7.80;99.90;;;;;;4880556;29;19996;-68
2023/01/18 15:03:25;;;;;;;;;;;7.70;99.90;;;;;;4886001;29;20015;-69
2023/01/18 15:05:56;;;;;;;;;;;7.60;99.90;;;;;;4891876;29;19970;-66
2023/01/18 15:08:22;;;;;;;;;;;7.40;99.90;;;;;;4888874;29;19983;-66
2023/01/18 15:10:47;;;;;;;;;;;7.20;99.90;;;;;;4890370;29;19923;-68
2023/01/18 15:13:15;;;;;;;;;;;6.90;99.90;;;;;;4892982;29;19915;-64
2023/01/18 15:15:42;;;;;;;;;;;6.80;99.90;;;;;;4887856;29;19907;-63